Wetterdaten: Samstag, 10.05.2008
Datum Zeit Temp. a Sch. Temp. a Son. Temp. a Bod. Feuchte a. Luftdruck Regen Wind Richtung Richtung Sonnenschein Helligkeit Taupunkt Windchill
10.05.2008 00:01 15,0 C 15,0 C 13,9 C 52 % 1018 hPa 0,0 l/m 1,7 m/s (2 Bft) O-NO45 70 0 min 0 lux 5,2 C 15,0 C
10.05.2008 00:06 14,9 C 15,0 C 13,8 C 53 % 1018 hPa 0,0 l/m 1,9 m/s (2 Bft) O 95 0 min 0 lux 5,4 C 14,6 C
10.05.2008 00:11 14,4 C 14,8 C 13,5 C 54 % 1018 hPa 0,0 l/m 1,2 m/s (1 Bft) O22.5 80 0 min 0 lux 5,2 C 14,4 C
10.05.2008 00:16 14,4 C 14,6 C 13,7 C 54 % 1018 hPa 0,0 l/m 0,9 m/s (1 Bft) O 80 0 min 0 lux 5,2 C 14,4 C
10.05.2008 00:21 14,0 C 14,4 C 13,4 C 55 % 1018 hPa 0,0 l/m 0,3 m/s (0 Bft) O-NO 60 0 min 0 lux 5,1 C 14,0 C
10.05.2008 00:26 13,9 C 14,2 C 13,3 C 55 % 1018 hPa 0,0 l/m 1,3 m/s (1 Bft) O22.5 85 0 min 0 lux 5,0 C 13,9 C
10.05.2008 00:31 13,7 C 14,2 C 13,1 C 56 % 1018 hPa 0,0 l/m 1,4 m/s (1 Bft) O22.5 80 0 min 0 lux 5,1 C 13,7 C
10.05.2008 00:36 13,6 C 14,0 C 13,0 C 56 % 1018 hPa 0,0 l/m 0,0 m/s (0 Bft) O-NO 75 0 min 0 lux 5,0 C 13,6 C
10.05.2008 00:41 13,4 C 13,9 C 12,9 C 57 % 1018 hPa 0,0 l/m 0,0 m/s (0 Bft) O22.5 80 0 min 0 lux 5,1 C 13,4 C
10.05.2008 00:46 13,3 C 13,8 C 12,8 C 57 % 1018 hPa 0,0 l/m 1,1 m/s (1 Bft) O 90 0 min 0 lux 5,0 C 13,3 C
10.05.2008 00:51 13,3 C 13,6 C 12,9 C 57 % 1018 hPa 0,0 l/m 1,0 m/s (1 Bft) O 95 0 min 0 lux 5,0 C 13,3 C
10.05.2008 00:56 13,2 C 13,5 C 12,8 C 57 % 1018 hPa 0,0 l/m 0,0 m/s (0 Bft) O 90 0 min 0 lux 4,9 C 13,2 C
10.05.2008 01:01 13,1 C 13,4 C 12,8 C 57 % 1018 hPa 0,0 l/m 0,2 m/s (0 Bft) O-NO 75 0 min 0 lux 4,8 C 13,1 C
10.05.2008 01:06 13,0 C 13,3 C 12,4 C 57 % 1018 hPa 0,0 l/m 0,0 m/s (0 Bft) O-NO 70 0 min 0 lux 4,7 C 13,0 C
10.05.2008 01:11 12,8 C 13,1 C 12,4 C 57 % 1018 hPa 0,0 l/m 0,0 m/s (0 Bft) O-NO 60 0 min 0 lux 4,5 C 12,8 C
10.05.2008 01:16 12,5 C 13,0 C 12,2 C 59 % 1018 hPa 0,0 l/m 0,0 m/s (0 Bft) O-NO 65 0 min 0 lux 4,7 C 12,5 C
10.05.2008 01:21 12,5 C 13,0 C 12,2 C 59 % 1018 hPa 0,0 l/m 0,0 m/s (0 Bft) O22.5 85 0 min 0 lux 4,7 C 12,5 C
10.05.2008 01:26 12,3 C 12,8 C 11,6 C 60 % 1018 hPa 0,0 l/m 0,0 m/s (0 Bft) O 90 0 min 0 lux 4,8 C 12,3 C
10.05.2008 01:31 12,1 C 12,7 C 12,0 C 60 % 1018 hPa 0,0 l/m 0,0 m/s (0 Bft) O 90 0 min 0 lux 4,6 C 12,1 C
10.05.2008 01:36 12,0 C 12,7 C 11,9 C 60 % 1018 hPa 0,0 l/m 0,1 m/s (0 Bft) O-NO22.5 75 0 min 0 lux 4,5 C 12,0 C
10.05.2008 01:41 12,0 C 12,6 C 12,0 C 60 % 1018 hPa 0,0 l/m 0,6 m/s (1 Bft) O 90 0 min 0 lux 4,5 C 12,0 C
10.05.2008 01:46 11,8 C 12,4 C 11,9 C 60 % 1018 hPa 0,0 l/m 0,0 m/s (0 Bft) O 90 0 min 0 lux 4,3 C 11,8 C
10.05.2008 01:51 11,5 C 12,2 C 11,4 C 62 % 1018 hPa 0,0 l/m 0,0 m/s (0 Bft) O 90 0 min 0 lux 4,5 C 11,5 C
10.05.2008 01:56 11,4 C 12,1 C 11,6 C 61 % 1018 hPa 0,0 l/m 0,0 m/s (0 Bft) O 90 0 min 0 lux 4,2 C 11,4 C
10.05.2008 02:01 11,3 C 12,0 C 11,0 C 63 % 1018 hPa 0,0 l/m 0,0 m/s (0 Bft) SO 125 0 min 0 lux 4,5 C 11,3 C
10.05.2008 02:06 11,3 C 11,9 C 11,1 C 64 % 1018 hPa 0,0 l/m 0,0 m/s (0 Bft) O22.5 90 0 min 0 lux 4,7 C 11,3 C
10.05.2008 02:11 11,3 C 11,9 C 11,3 C 64 % 1018 hPa 0,0 l/m 1,6 m/s (1 Bft) O-SO22.5 105 0 min 0 lux 4,7 C 11,3 C
10.05.2008 02:16 11,2 C 11,8 C 11,4 C 63 % 1018 hPa 0,0 l/m 0,0 m/s (0 Bft) O-SO 105 0 min 0 lux 4,4 C 11,2 C
10.05.2008 02:21 11,0 C 11,7 C 11,3 C 64 % 1018 hPa 0,0 l/m 0,0 m/s (0 Bft) O-SO22.5 105 0 min 0 lux 4,5 C 11,0 C
10.05.2008 02:25 10,7 C 11,7 C 11,1 C 68 % 1018 hPa 0,0 l/m 0,1 m/s (0 Bft) W-SW22.5 245 0 min 0 lux 5,0 C 10,7 C
10.05.2008 02:31 10,5 C 11,6 C 11,0 C 68 % 1018 hPa 0,0 l/m 1,5 m/s (1 Bft) W22.5 260 0 min 0 lux 4,8 C 10,5 C
10.05.2008 02:36 10,4 C 11,5 C 10,9 C 67 % 1018 hPa 0,0 l/m 0,1 m/s (0 Bft) W-SW 250 0 min 0 lux 4,5 C 10,4 C
10.05.2008 02:41 10,2 C 11,4 C 10,7 C 67 % 1018 hPa 0,0 l/m 0,0 m/s (0 Bft) W-SW 245 0 min 0 lux 4,4 C 10,2 C
10.05.2008 02:46 10,1 C 11,3 C 10,5 C 68 % 1018 hPa 0,0 l/m 0,0 m/s (0 Bft) W-SW 245 0 min 0 lux 4,5 C 10,1 C
10.05.2008 02:51 10,0 C 11,1 C 10,5 C 68 % 1018 hPa 0,0 l/m 0,0 m/s (0 Bft) W-SW 245 0 min 0 lux 4,4 C 10,0 C
10.05.2008 02:56 9,8 C 11,0 C 10,7 C 67 % 1018 hPa 0,0 l/m 0,0 m/s (0 Bft) W-SW 245 0 min 0 lux 4,0 C 9,8 C
10.05.2008 03:01 9,8 C 10,9 C 10,7 C 67 % 1018 hPa 0,0 l/m 0,0 m/s (0 Bft) W-SW 245 0 min 0 lux 4,0 C 9,8 C
10.05.2008 03:06 9,6 C 10,8 C 10,2 C 68 % 1018 hPa 0,0 l/m 0,0 m/s (0 Bft) W-SW 245 0 min 0 lux 4,0 C 9,6 C
10.05.2008 03:11 9,5 C 10,7 C 10,3 C 69 % 1018 hPa 0,0 l/m 0,0 m/s (0 Bft) W-SW 245 0 min 0 lux 4,1 C 9,5 C
10.05.2008 03:16 9,5 C 10,6 C 10,1 C 69 % 1018 hPa 0,0 l/m 0,0 m/s (0 Bft) W-SW 245 0 min 0 lux 4,1 C 9,5 C
10.05.2008 03:21 9,4 C 10,6 C 10,1 C 69 % 1018 hPa 0,0 l/m 0,0 m/s (0 Bft) W-SW 245 0 min 0 lux 4,0 C 9,4 C
10.05.2008 03:26 9,3 C 10,5 C 10,1 C 70 % 1018 hPa 0,0 l/m 0,0 m/s (0 Bft) W-SW 245 0 min 0 lux 4,1 C 9,3 C
10.05.2008 03:31 9,2 C 10,3 C 10,0 C 70 % 1018 hPa 0,0 l/m 0,0 m/s (0 Bft) W-SW 245 0 min 0 lux 4,0 C 9,2 C
10.05.2008 03:36 9,1 C 10,3 C 9,8 C 71 % 1018 hPa 0,0 l/m 0,0 m/s (0 Bft) W-SW 245 0 min 0 lux 4,1 C 9,1 C
10.05.2008 03:41 9,0 C 10,2 C 9,2 C 71 % 1018 hPa 0,0 l/m 0,0 m/s (0 Bft) W-SW 245 0 min 0 lux 4,0 C 9,0 C
10.05.2008 03:46 8,8 C 10,1 C 9,6 C 72 % 1018 hPa 0,0 l/m 0,0 m/s (0 Bft) W-SW 245 0 min 0 lux 4,0 C 8,8 C
10.05.2008 03:51 8,8 C 10,0 C 9,6 C 72 % 1018 hPa 0,0 l/m 0,0 m/s (0 Bft) W-SW 245 0 min 0 lux 4,0 C 8,8 C
10.05.2008 03:56 8,7 C 10,0 C 9,6 C 73 % 1018 hPa 0,0 l/m 0,0 m/s (0 Bft) W-SW 245 0 min 0 lux 4,1 C 8,7 C
10.05.2008 04:01 8,6 C 9,8 C 9,6 C 73 % 1018 hPa 0,0 l/m 0,0 m/s (0 Bft) W-SW 245 0 min 0 lux 4,0 C 8,6 C
10.05.2008 04:06 8,6 C 9,7 C 9,3 C 74 % 1018 hPa 0,0 l/m 0,0 m/s (0 Bft) W-SW 245 0 min 0 lux 4,2 C 8,6 C
10.05.2008 04:11 8,5 C 9,6 C 9,3 C 73 % 1018 hPa 0,0 l/m 0,0 m/s (0 Bft) W-SW 245 0 min 0 lux 3,9 C 8,5 C
10.05.2008 04:16 8,4 C 9,6 C 8,9 C 74 % 1019 hPa 0,0 l/m 0,0 m/s (0 Bft) W-SW 245 0 min 0 lux 4,0 C 8,4 C
10.05.2008 04:21 8,4 C 9,4 C 9,2 C 74 % 1019 hPa 0,0 l/m 0,0 m/s (0 Bft) W-SW 245 0 min 0 lux 4,0 C 8,4 C
10.05.2008 04:26 8,2 C 9,3 C 9,1 C 75 % 1019 hPa 0,0 l/m 0,0 m/s (0 Bft) W-SW 245 0 min 0 lux 4,0 C 8,2 C
10.05.2008 04:31 8,2 C 9,3 C 8,7 C 74 % 1019 hPa 0,0 l/m 0,0 m/s (0 Bft) W-SW 245 0 min 0 lux 3,8 C 8,2 C
10.05.2008 04:36 8,0 C 9,2 C 9,0 C 75 % 1019 hPa 0,0 l/m 0,0 m/s (0 Bft) W-SW 245 0 min 0 lux 3,8 C 8,0 C
10.05.2008 04:41 8,0 C 9,1 C 8,9 C 75 % 1019 hPa 0,0 l/m 0,0 m/s (0 Bft) W-SW 245 0 min 0 lux 3,8 C 8,0 C
10.05.2008 04:46 7,9 C 9,0 C 8,9 C 75 % 1019 hPa 0,0 l/m 0,0 m/s (0 Bft) W-SW 245 0 min 0 lux 3,7 C 7,9 C
10.05.2008 04:51 7,8 C 8,9 C 8,7 C 75 % 1019 hPa 0,0 l/m 0,0 m/s (0 Bft) W-SW 245 0 min 0 lux 3,7 C 7,8 C
10.05.2008 04:56 7,7 C 8,8 C 8,9 C 75 % 1019 hPa 0,0 l/m 0,0 m/s (0 Bft) W-SW 245 0 min 0 lux 3,6 C 7,7 C
10.05.2008 05:01 7,7 C 8,8 C 8,5 C 76 % 1019 hPa 0,0 l/m 0,0 m/s (0 Bft) W-SW 245 0 min 0 lux 3,7 C 7,7 C
10.05.2008 05:06 7,6 C 8,7 C 8,4 C 77 % 1019 hPa 0,0 l/m 0,0 m/s (0 Bft) W-SW 245 0 min 0 lux 3,8 C 7,6 C
10.05.2008 05:11 7,6 C 8,6 C 8,4 C 77 % 1019 hPa 0,0 l/m 0,0 m/s (0 Bft) W-SW 245 0 min 0 lux 3,8 C 7,6 C
10.05.2008 05:16 7,5 C 8,6 C 8,5 C 79 % 1019 hPa 0,0 l/m 0,0 m/s (0 Bft) W-SW 245 0 min 0 lux 4,1 C 7,5 C
10.05.2008 05:21 7,4 C 8,5 C 8,2 C 77 % 1019 hPa 0,0 l/m 0,0 m/s (0 Bft) W-SW 245 0 min 0 lux 3,6 C 7,4 C
10.05.2008 05:26 7,3 C 8,4 C 8,3 C 78 % 1019 hPa 0,0 l/m 0,0 m/s (0 Bft) W-SW 245 0 min 56 lux 3,7 C 7,3 C
10.05.2008 05:31 7,2 C 8,3 C 8,1 C 78 % 1019 hPa 0,0 l/m 0,0 m/s (0 Bft) W-SW 245 0 min 103 lux 3,6 C 7,2 C
10.05.2008 05:36 7,2 C 8,2 C 8,1 C 78 % 1019 hPa 0,0 l/m 0,0 m/s (0 Bft) W-SW 245 0 min 176 lux 3,6 C 7,2 C
10.05.2008 05:41 7,2 C 8,2 C 8,2 C 79 % 1019 hPa 0,0 l/m 0,0 m/s (0 Bft) W-SW 245 0 min 283 lux 3,8 C 7,2 C
10.05.2008 05:46 7,2 C 8,1 C 7,9 C 79 % 1019 hPa 0,0 l/m 0,0 m/s (0 Bft) W-SW 245 0 min 353 lux 3,8 C 7,2 C
10.05.2008 05:51 7,1 C 8,0 C 7,8 C 80 % 1019 hPa 0,0 l/m 0,0 m/s (0 Bft) W-SW 245 0 min 529 lux 3,9 C 7,1 C
10.05.2008 05:56 7,1 C 8,0 C 8,0 C 80 % 1019 hPa 0,0 l/m 0,0 m/s (0 Bft) W-SW 245 0 min 764 lux 3,9 C 7,1 C
10.05.2008 06:01 7,1 C 7,9 C 7,9 C 79 % 1019 hPa 0,0 l/m 0,0 m/s (0 Bft) W-SW 245 0 min 1,05 klux 3,7 C 7,1 C
10.05.2008 06:06 7,0 C 7,9 C 8,0 C 80 % 1019 hPa 0,0 l/m 0,1 m/s (0 Bft) W22.5 260 0 min 1,39 klux 3,8 C 7,0 C
10.05.2008 06:11 7,2 C 7,9 C 8,0 C 81 % 1019 hPa 0,0 l/m 1,2 m/s (1 Bft) W-NW22.5 290 0 min 1,76 klux 4,2 C 7,2 C
10.05.2008 06:16 7,2 C 7,9 C 8,2 C 81 % 1019 hPa 0,0 l/m 0,0 m/s (0 Bft) W 280 0 min 2,15 klux 4,2 C 7,2 C
10.05.2008 06:21 7,3 C 7,9 C 8,1 C 81 % 1019 hPa 0,0 l/m 0,0 m/s (0 Bft) W-NW 285 0 min 3,32 klux 4,3 C 7,3 C
10.05.2008 06:26 7,4 C 7,9 C 8,2 C 80 % 1019 hPa 0,0 l/m 0,0 m/s (0 Bft) W-NW 285 0 min 5,72 klux 4,2 C 7,4 C
10.05.2008 06:31 7,5 C 7,9 C 8,5 C 80 % 1019 hPa 0,0 l/m 0,0 m/s (0 Bft) W-NW 285 0 min 4,29 klux 4,3 C 7,5 C
10.05.2008 06:36 7,5 C 8,0 C 8,1 C 80 % 1019 hPa 0,0 l/m 0,0 m/s (0 Bft) W-NW 285 0 min 8,72 klux 4,3 C 7,5 C
10.05.2008 06:41 7,6 C 8,0 C 8,1 C 81 % 1019 hPa 0,0 l/m 0,0 m/s (0 Bft) W-NW 285 0 min 9,6 klux 4,6 C 7,6 C
10.05.2008 06:46 7,6 C 8,0 C 8,2 C 79 % 1019 hPa 0,0 l/m 0,0 m/s (0 Bft) W-NW 285 5 min 11,0 klux 4,2 C 7,6 C
10.05.2008 06:51 7,7 C 8,0 C 8,6 C 79 % 1019 hPa 0,0 l/m 0,0 m/s (0 Bft) W-NW 285 5 min 12,4 klux 4,3 C 7,7 C
10.05.2008 06:56 7,8 C 8,0 C 8,6 C 79 % 1019 hPa 0,0 l/m 0,0 m/s (0 Bft) W-NW 285 5 min 13,8 klux 4,4 C 7,8 C
10.05.2008 07:01 9,0 C 8,1 C 8,8 C 78 % 1019 hPa 0,0 l/m 0,0 m/s (0 Bft) W-NW 285 5 min 15,2 klux 5,4 C 9,0 C
10.05.2008 07:06 10,1 C 8,1 C 8,8 C 75 % 1019 hPa 0,0 l/m 0,0 m/s (0 Bft) W-NW 285 5 min 16,7 klux 5,9 C 10,1 C
10.05.2008 07:11 12,0 C 8,2 C 9,1 C 71 % 1019 hPa 0,0 l/m 0,0 m/s (0 Bft) W-NW 285 5 min 18,1 klux 6,9 C 12,0 C
10.05.2008 07:16 13,4 C 8,3 C 9,3 C 66 % 1019 hPa 0,0 l/m 0,0 m/s (0 Bft) W-NW 290 5 min 19,3 klux 7,2 C 13,4 C
10.05.2008 07:21 14,5 C 8,4 C 11,5 C 64 % 1019 hPa 0,0 l/m 0,0 m/s (0 Bft) W-NW 285 5 min 20,4 klux 7,8 C 14,5 C
10.05.2008 07:26 15,0 C 8,5 C 16,2 C 63 % 1019 hPa 0,0 l/m 0,0 m/s (0 Bft) W-NW 285 5 min 22,0 klux 8,0 C 15,0 C
10.05.2008 07:31 15,9 C 8,6 C 17,8 C 60 % 1019 hPa 0,0 l/m 0,0 m/s (0 Bft) W-NW 285 5 min 22,7 klux 8,1 C 15,9 C
10.05.2008 07:36 16,4 C 8,7 C 17,8 C 59 % 1019 hPa 0,0 l/m 0,0 m/s (0 Bft) W-NW 285 5 min 24,2 klux 8,4 C 16,4 C
10.05.2008 07:41 16,8 C 8,9 C 18,0 C 58 % 1019 hPa 0,0 l/m 0,0 m/s (0 Bft) W-NW 285 5 min 25,3 klux 8,5 C 16,8 C
10.05.2008 07:46 17,4 C 9,1 C 18,1 C 57 % 1019 hPa 0,0 l/m 0,0 m/s (0 Bft) W-NW 285 5 min 26,4 klux 8,8 C 17,4 C
10.05.2008 07:51 17,8 C 9,2 C 17,8 C 54 % 1019 hPa 0,0 l/m 0,0 m/s (0 Bft) W-NW 285 5 min 27,1 klux 8,4 C 17,8 C
10.05.2008 07:56 18,0 C 9,4 C 17,9 C 54 % 1019 hPa 0,0 l/m 0,0 m/s (0 Bft) W-NW 285 5 min 28,7 klux 8,6 C 18,0 C
10.05.2008 08:01 18,4 C 9,6 C 17,8 C 53 % 1019 hPa 0,0 l/m 0,0 m/s (0 Bft) W-NW 285 5 min 29,9 klux 8,6 C 18,4 C
10.05.2008 08:06 18,7 C 9,7 C 17,5 C 53 % 1019 hPa 0,0 l/m 0,0 m/s (0 Bft) W-NW 285 5 min 31,0 klux 8,9 C 18,7 C
10.05.2008 08:11 19,0 C 9,9 C 17,3 C 51 % 1019 hPa 0,0 l/m 0,0 m/s (0 Bft) W-NW 285 5 min 31,5 klux 8,6 C 19,0 C
10.05.2008 08:15 19,0 C 10,2 C 17,6 C 50 % 1019 hPa 0,0 l/m 0,0 m/s (0 Bft) W-NW 285 4 min 33,1 klux 8,3 C 19,0 C
10.05.2008 08:21 17,9 C 10,4 C 18,0 C 51 % 1019 hPa 0,0 l/m 0,0 m/s (0 Bft) W-NW 285 6 min 34,5 klux 7,6 C 17,9 C
10.05.2008 08:26 16,2 C 10,4 C 18,0 C 54 % 1019 hPa 0,0 l/m 0,0 m/s (0 Bft) W-NW 285 5 min 35,1 klux 6,9 C 16,2 C
10.05.2008 08:31 16,2 C 10,9 C 18,3 C 54 % 1019 hPa 0,0 l/m 0,0 m/s (0 Bft) W-NW 285 5 min 36,0 klux 6,9 C 16,2 C
10.05.2008 08:36 15,0 C 11,0 C 18,4 C 59 % 1019 hPa 0,0 l/m 0,0 m/s (0 Bft) W22.5 280 5 min 37,2 klux 7,1 C 15,0 C
10.05.2008 08:41 15,0 C 11,3 C 18,5 C 60 % 1019 hPa 0,0 l/m 0,0 m/s (0 Bft) W-SW22.5 240 5 min 38,1 klux 7,3 C 15,0 C
10.05.2008 08:46 15,0 C 11,7 C 18,6 C 60 % 1019 hPa 0,0 l/m 0,0 m/s (0 Bft) W-SW 240 5 min 39,3 klux 7,3 C 15,0 C
10.05.2008 08:51 15,2 C 12,1 C 19,1 C 61 % 1019 hPa 0,0 l/m 0,0 m/s (0 Bft) SW 230 5 min 40,4 klux 7,7 C 15,2 C
10.05.2008 08:56 15,6 C 12,1 C 20,0 C 61 % 1019 hPa 0,0 l/m 0,1 m/s (0 Bft) SO67.5 140 5 min 41,5 klux 8,1 C 15,6 C
10.05.2008 09:01 15,9 C 12,8 C 20,1 C 60 % 1019 hPa 0,0 l/m 1,4 m/s (1 Bft) O-SO45 115 5 min 42,5 klux 8,1 C 15,9 C
10.05.2008 09:06 16,8 C 13,2 C 20,2 C 56 % 1019 hPa 0,0 l/m 3,4 m/s (2 Bft) SO45 125 5 min 43,5 klux 8,0 C 14,3 C
10.05.2008 09:11 17,2 C 13,4 C 20,3 C 51 % 1019 hPa 0,0 l/m 4,2 m/s (3 Bft) O-SO22.5 115 5 min 44,7 klux 7,0 C 13,8 C
10.05.2008 09:16 17,4 C 13,9 C 20,5 C 50 % 1019 hPa 0,0 l/m 5,3 m/s (3 Bft) SO22.5 125 5 min 45,0 klux 6,9 C 13,1 C
10.05.2008 09:21 17,6 C 14,3 C 20,3 C 50 % 1019 hPa 0,0 l/m 4,3 m/s (3 Bft) SO45 135 5 min 46,1 klux 7,1 C 14,2 C
10.05.2008 09:26 17,7 C 14,6 C 20,9 C 50 % 1019 hPa 0,0 l/m 3,6 m/s (3 Bft) O45 90 5 min 46,9 klux 7,1 C 15,1 C
10.05.2008 09:31 18,3 C 14,7 C 21,2 C 50 % 1019 hPa 0,0 l/m 3,7 m/s (3 Bft) O-NO67.5 75 5 min 47,9 klux 7,7 C 15,7 C
10.05.2008 09:36 18,4 C 15,0 C 21,2 C 50 % 1019 hPa 0,0 l/m 3,1 m/s (2 Bft) O45 90 5 min 49,0 klux 7,8 C 16,5 C
10.05.2008 09:41 18,6 C 15,3 C 20,8 C 47 % 1019 hPa 0,0 l/m 2,2 m/s (2 Bft) O-NO67.5 70 5 min 49,4 klux 7,1 C 17,9 C
10.05.2008 09:46 18,8 C 15,4 C 20,6 C 48 % 1019 hPa 0,0 l/m 3,4 m/s (2 Bft) O-SO22.5 115 5 min 50,9 klux 7,6 C 16,6 C
10.05.2008 09:51 19,0 C 15,7 C 20,6 C 48 % 1019 hPa 0,0 l/m 3,1 m/s (2 Bft) O-SO67.5 115 5 min 51,9 klux 7,7 C 17,1 C
10.05.2008 09:56 19,2 C 15,9 C 20,3 C 46 % 1019 hPa 0,0 l/m 3,8 m/s (3 Bft) SO45 140 5 min 52,7 klux 7,3 C 16,7 C
10.05.2008 10:01 19,4 C 16,1 C 20,1 C 46 % 1019 hPa 0,0 l/m 4,2 m/s (3 Bft) SO22.5 130 5 min 53,5 klux 7,5 C 16,5 C
10.05.2008 10:06 19,5 C 17,1 C 20,2 C 47 % 1019 hPa 0,0 l/m 3,5 m/s (3 Bft) O45 85 5 min 54,3 klux 7,9 C 17,3 C
10.05.2008 10:11 19,6 C 18,5 C 20,2 C 45 % 1019 hPa 0,0 l/m 3,2 m/s (2 Bft) O45 100 5 min 54,8 klux 7,3 C 17,7 C
10.05.2008 10:16 19,6 C 19,7 C 20,3 C 46 % 1019 hPa 0,0 l/m 3,9 m/s (3 Bft) O-SO67.5 110 5 min 55,7 klux 7,7 C 17,0 C
10.05.2008 10:21 19,8 C 20,2 C 21,6 C 45 % 1019 hPa 0,0 l/m 3,0 m/s (2 Bft) O45 95 5 min 56,7 klux 7,5 C 18,2 C
10.05.2008 10:26 19,8 C 21,1 C 21,9 C 45 % 1019 hPa 0,0 l/m 4,4 m/s (3 Bft) SO45 125 5 min 57,5 klux 7,5 C 16,8 C
10.05.2008 10:31 20,1 C 22,3 C 22,4 C 46 % 1019 hPa 0,0 l/m 4,1 m/s (3 Bft) SO67.5 135 5 min 57,9 klux 8,1 C 17,5 C
10.05.2008 10:36 20,2 C 23,4 C 22,6 C 44 % 1019 hPa 0,0 l/m 4,1 m/s (3 Bft) SO45 140 5 min 58,9 klux 7,6 C 17,5 C
10.05.2008 10:41 20,4 C 23,5 C 22,7 C 46 % 1019 hPa 0,0 l/m 6,2 m/s (4 Bft) O-SO45 110 5 min 59,7 klux 8,4 C 16,3 C
10.05.2008 10:46 20,0 C 23,5 C 22,3 C 44 % 1019 hPa 0,0 l/m 6,1 m/s (4 Bft) O-SO45 120 5 min 60,2 klux 7,4 C 15,9 C
10.05.2008 10:51 20,2 C 23,8 C 23,7 C 44 % 1019 hPa 0,0 l/m 4,1 m/s (3 Bft) O-SO22.5 115 5 min 60,8 klux 7,6 C 17,6 C
10.05.2008 10:56 20,4 C 24,3 C 23,6 C 46 % 1019 hPa 0,0 l/m 5,1 m/s (3 Bft) O-SO67.5 120 5 min 61,4 klux 8,4 C 17,1 C
10.05.2008 11:01 20,2 C 24,4 C 23,5 C 43 % 1019 hPa 0,0 l/m 5,6 m/s (4 Bft) O-SO45 110 5 min 61,7 klux 7,2 C 16,4 C
10.05.2008 11:06 20,5 C 24,7 C 23,7 C 45 % 1019 hPa 0,0 l/m 3,8 m/s (3 Bft) O-SO45 115 5 min 62,0 klux 8,2 C 18,2 C
10.05.2008 11:11 20,6 C 25,4 C 24,4 C 44 % 1019 hPa 0,0 l/m 4,3 m/s (3 Bft) O-SO45 115 5 min 63,2 klux 7,9 C 17,9 C
10.05.2008 11:16 20,6 C 25,6 C 24,0 C 43 % 1019 hPa 0,0 l/m 5,8 m/s (4 Bft) O-SO45 120 5 min 63,8 klux 7,6 C 16,8 C
10.05.2008 11:21 20,8 C 26,4 C 24,1 C 44 % 1019 hPa 0,0 l/m 5,1 m/s (3 Bft) SO67.5 145 5 min 64,6 klux 8,1 C 17,5 C
10.05.2008 11:26 21,3 C 26,6 C 24,7 C 42 % 1019 hPa 0,0 l/m 5,1 m/s (3 Bft) SO67.5 145 5 min 65,4 klux 7,9 C 18,2 C
10.05.2008 11:31 21,3 C 26,8 C 24,9 C 42 % 1019 hPa 0,0 l/m 3,1 m/s (2 Bft) SO45 130 5 min 66,0 klux 7,9 C 19,7 C
10.05.2008 11:36 21,3 C 26,9 C 24,9 C 42 % 1019 hPa 0,0 l/m 3,1 m/s (2 Bft) SO45 130 5 min 66,6 klux 7,9 C 19,7 C
10.05.2008 11:41 21,5 C 27,1 C 25,5 C 41 % 1019 hPa 0,0 l/m 7,0 m/s (4 Bft) SO22.5 125 5 min 67,0 klux 7,7 C 17,4 C
10.05.2008 11:46 21,6 C 27,2 C 25,0 C 39 % 1019 hPa 0,0 l/m 6,1 m/s (4 Bft) O-SO22.5 120 5 min 67,4 klux 7,0 C 18,0 C
10.05.2008 11:51 21,6 C 27,4 C 25,5 C 41 % 1019 hPa 0,0 l/m 5,9 m/s (4 Bft) SO67.5 125 5 min 68,2 klux 7,8 C 18,1 C
10.05.2008 11:56 22,0 C 27,6 C 25,7 C 41 % 1019 hPa 0,0 l/m 4,8 m/s (3 Bft) S-SO45 150 5 min 68,2 klux 8,1 C 19,2 C
10.05.2008 12:01 22,1 C 27,6 C 26,1 C 41 % 1019 hPa 0,0 l/m 4,5 m/s (3 Bft) O-SO45 120 5 min 68,6 klux 8,2 C 19,5 C
10.05.2008 12:06 21,9 C 27,8 C 26,3 C 40 % 1019 hPa 0,0 l/m 5,2 m/s (3 Bft) SO45 125 5 min 69,0 klux 7,7 C 18,9 C
10.05.2008 12:11 22,0 C 27,9 C 26,7 C 40 % 1019 hPa 0,0 l/m 4,9 m/s (3 Bft) O-SO67.5 105 5 min 69,4 klux 7,8 C 19,2 C
10.05.2008 12:16 22,4 C 28,0 C 27,0 C 39 % 1019 hPa 0,0 l/m 9,8 m/s (5 Bft) O-NO67.5 65 5 min 70,0 klux 7,8 C 17,6 C
10.05.2008 12:21 22,2 C 27,8 C 26,9 C 39 % 1019 hPa 0,0 l/m 6,7 m/s (4 Bft) O-SO22.5 115 5 min 70,2 klux 7,6 C 18,5 C
10.05.2008 12:26 22,3 C 27,9 C 26,9 C 39 % 1019 hPa 0,0 l/m 5,9 m/s (4 Bft) SO67.5 125 5 min 70,4 klux 7,7 C 19,0 C
10.05.2008 12:31 22,4 C 28,2 C 26,8 C 35 % 1019 hPa 0,0 l/m 6,3 m/s (4 Bft) O-SO67.5 110 5 min 70,8 klux 6,2 C 19,0 C
10.05.2008 12:36 22,4 C 28,1 C 27,7 C 41 % 1019 hPa 0,0 l/m 7,6 m/s (4 Bft) O-SO45 105 5 min 71,5 klux 8,5 C 18,4 C
10.05.2008 12:41 22,4 C 28,1 C 27,7 C 38 % 1019 hPa 0,0 l/m 4,7 m/s (3 Bft) O-SO45 110 5 min 71,4 klux 7,4 C 19,8 C
10.05.2008 12:46 22,5 C 28,1 C 27,4 C 36 % 1019 hPa 0,0 l/m 6,3 m/s (4 Bft) O45 95 5 min 71,8 klux 6,7 C 19,0 C
10.05.2008 12:51 22,7 C 28,9 C 26,9 C 35 % 1019 hPa 0,0 l/m 6,7 m/s (4 Bft) O-SO45 115 5 min 72,0 klux 6,4 C 19,2 C
10.05.2008 12:56 23,0 C 29,0 C 27,1 C 34 % 1019 hPa 0,0 l/m 6,7 m/s (4 Bft) S-SO45 150 5 min 72,2 klux 6,3 C 19,6 C
10.05.2008 13:01 23,0 C 29,3 C 27,0 C 36 % 1019 hPa 0,0 l/m 5,9 m/s (4 Bft) SO45 140 5 min 71,7 klux 7,1 C 19,9 C
10.05.2008 13:06 23,0 C 29,3 C 27,4 C 36 % 1019 hPa 0,0 l/m 5,7 m/s (4 Bft) SO22.5 125 5 min 72,7 klux 7,1 C 20,0 C
10.05.2008 13:11 22,9 C 29,5 C 27,4 C 34 % 1019 hPa 0,0 l/m 5,7 m/s (4 Bft) SO22.5 125 5 min 72,6 klux 6,2 C 19,9 C
10.05.2008 13:16 23,0 C 29,6 C 27,9 C 37 % 1019 hPa 0,0 l/m 6,9 m/s (4 Bft) O-SO45 105 5 min 72,7 klux 7,5 C 19,5 C
10.05.2008 13:21 22,9 C 29,7 C 27,6 C 32 % 1019 hPa 0,0 l/m 7,3 m/s (4 Bft) O-SO45 115 5 min 73,2 klux 5,3 C 19,2 C
10.05.2008 13:26 23,2 C 30,1 C 28,2 C 35 % 1019 hPa 0,0 l/m 7,8 m/s (4 Bft) O-SO67.5 115 5 min 72,8 klux 6,9 C 19,4 C
10.05.2008 13:31 23,1 C 30,0 C 28,1 C 35 % 1019 hPa 0,0 l/m 5,1 m/s (3 Bft) O-SO45 115 5 min 72,8 klux 6,8 C 20,4 C
10.05.2008 13:36 23,0 C 29,8 C 27,2 C 34 % 1019 hPa 0,0 l/m 5,1 m/s (3 Bft) O-SO45 115 5 min 72,5 klux 6,3 C 20,3 C
10.05.2008 13:41 23,2 C 30,1 C 28,4 C 37 % 1019 hPa 0,0 l/m 5,1 m/s (3 Bft) O-SO45 115 5 min 72,5 klux 7,7 C 20,6 C
10.05.2008 13:46 23,4 C 30,5 C 27,4 C 33 % 1019 hPa 0,0 l/m 5,1 m/s (3 Bft) O-SO45 115 5 min 72,6 klux 6,2 C 20,8 C
10.05.2008 13:51 23,1 C 30,6 C 27,0 C 37 % 1019 hPa 0,0 l/m 5,1 m/s (3 Bft) O-SO45 115 5 min 70,8 klux 7,6 C 20,4 C
10.05.2008 13:56 23,2 C 30,4 C 26,0 C 34 % 1019 hPa 0,0 l/m 5,1 m/s (3 Bft) O-SO45 115 5 min 71,5 klux 6,5 C 20,6 C
10.05.2008 14:01 23,3 C 30,8 C 25,6 C 33 % 1019 hPa 0,0 l/m 5,1 m/s (3 Bft) O-SO45 115 5 min 71,9 klux 6,1 C 20,7 C
10.05.2008 14:06 23,2 C 30,6 C 25,7 C 34 % 1019 hPa 0,0 l/m 5,1 m/s (3 Bft) O-SO45 115 5 min 71,7 klux 6,5 C 20,6 C
10.05.2008 14:11 23,2 C 30,0 C 24,8 C 33 % 1019 hPa 0,0 l/m 5,1 m/s (3 Bft) O-SO45 115 5 min 71,2 klux 6,0 C 20,6 C
10.05.2008 14:16 23,2 C 29,9 C 25,0 C 34 % 1019 hPa 0,0 l/m 5,1 m/s (3 Bft) O-SO45 115 5 min 71,1 klux 6,5 C 20,6 C
10.05.2008 14:21 23,4 C 30,2 C 25,1 C 35 % 1019 hPa 0,0 l/m 5,1 m/s (3 Bft) O-SO45 115 5 min 70,9 klux 7,1 C 20,8 C
10.05.2008 14:26 23,4 C 30,5 C 25,0 C 35 % 1019 hPa 0,0 l/m 5,1 m/s (3 Bft) O-SO45 115 5 min 71,3 klux 7,1 C 20,8 C
10.05.2008 14:31 23,6 C 31,1 C 24,8 C 32 % 1019 hPa 0,0 l/m 5,1 m/s (3 Bft) O-SO45 115 5 min 71,1 klux 5,9 C 21,1 C
10.05.2008 14:36 23,9 C 31,5 C 24,5 C 33 % 1019 hPa 0,0 l/m 5,1 m/s (3 Bft) O-SO45 115 5 min 70,6 klux 6,6 C 21,4 C
10.05.2008 14:41 23,6 C 31,8 C 24,2 C 33 % 1019 hPa 0,0 l/m 5,1 m/s (3 Bft) O-SO45 115 5 min 70,3 klux 6,4 C 21,1 C
10.05.2008 14:46 23,6 C 31,4 C 24,0 C 35 % 1019 hPa 0,0 l/m 5,1 m/s (3 Bft) O-SO45 115 5 min 70,3 klux 7,2 C 21,1 C
10.05.2008 14:51 23,7 C 31,5 C 24,2 C 33 % 1019 hPa 0,0 l/m 5,1 m/s (3 Bft) O-SO45 115 5 min 69,6 klux 6,5 C 21,2 C
10.05.2008 14:56 24,0 C 32,0 C 23,9 C 33 % 1019 hPa 0,0 l/m 5,1 m/s (3 Bft) O-SO45 115 5 min 69,8 klux 6,7 C 21,6 C
10.05.2008 15:01 23,9 C 32,0 C 23,8 C 32 % 1019 hPa 0,0 l/m 5,1 m/s (3 Bft) O-SO45 115 5 min 69,8 klux 6,2 C 21,4 C
10.05.2008 15:06 23,9 C 32,2 C 23,7 C 29 % 1019 hPa 0,0 l/m 5,1 m/s (3 Bft) O-SO45 115 5 min 68,0 klux 4,8 C 21,4 C
10.05.2008 15:11 24,2 C 32,6 C 24,1 C 33 % 1018 hPa 0,0 l/m 5,1 m/s (3 Bft) O-SO45 115 5 min 68,0 klux 6,9 C 21,8 C
10.05.2008 15:16 24,4 C 32,9 C 23,9 C 32 % 1018 hPa 0,0 l/m 5,1 m/s (3 Bft) O-SO45 115 5 min 68,5 klux 6,6 C 22,1 C
10.05.2008 15:21 24,4 C 32,8 C 23,6 C 32 % 1018 hPa 0,0 l/m 5,1 m/s (3 Bft) O-SO45 115 5 min 67,0 klux 6,6 C 22,1 C
10.05.2008 15:26 24,4 C 33,0 C 23,7 C 32 % 1018 hPa 0,0 l/m 5,1 m/s (3 Bft) O-SO45 115 5 min 65,9 klux 6,6 C 22,1 C
10.05.2008 15:31 23,9 C 32,8 C 23,7 C 31 % 1018 hPa 0,0 l/m 5,1 m/s (3 Bft) O-SO45 115 5 min 65,2 klux 5,7 C 21,4 C
10.05.2008 15:36 23,9 C 32,9 C 23,5 C 32 % 1018 hPa 0,0 l/m 5,1 m/s (3 Bft) O-SO45 115 5 min 65,1 klux 6,2 C 21,4 C
10.05.2008 15:41 24,3 C 33,3 C 23,6 C 32 % 1018 hPa 0,0 l/m 5,1 m/s (3 Bft) O-SO45 115 5 min 64,4 klux 6,5 C 22,0 C
10.05.2008 15:46 24,6 C 33,3 C 23,6 C 33 % 1018 hPa 0,0 l/m 5,1 m/s (3 Bft) O-SO45 115 5 min 62,8 klux 7,2 C 22,3 C
10.05.2008 15:51 24,6 C 33,1 C 23,2 C 32 % 1018 hPa 0,0 l/m 5,1 m/s (3 Bft) O-SO45 115 5 min 62,7 klux 6,8 C 22,3 C
10.05.2008 15:56 24,2 C 33,1 C 23,1 C 32 % 1018 hPa 0,0 l/m 5,1 m/s (3 Bft) O-SO45 115 5 min 62,3 klux 6,5 C 21,8 C
10.05.2008 16:01 23,9 C 32,7 C 22,9 C 32 % 1018 hPa 0,0 l/m 5,1 m/s (3 Bft) O-SO45 115 5 min 61,6 klux 6,2 C 21,4 C
10.05.2008 16:06 23,9 C 32,8 C 23,0 C 32 % 1018 hPa 0,0 l/m 5,1 m/s (3 Bft) O-SO45 115 5 min 60,2 klux 6,2 C 21,4 C
10.05.2008 16:11 24,1 C 33,0 C 23,1 C 32 % 1018 hPa 0,0 l/m 5,1 m/s (3 Bft) O-SO45 115 5 min 60,2 klux 6,4 C 21,7 C
10.05.2008 16:16 24,4 C 33,0 C 22,9 C 32 % 1018 hPa 0,0 l/m 5,1 m/s (3 Bft) O-SO45 115 5 min 59,3 klux 6,6 C 22,1 C
10.05.2008 16:21 24,2 C 33,1 C 22,9 C 31 % 1018 hPa 0,0 l/m 5,1 m/s (3 Bft) O-SO45 115 5 min 59,3 klux 6,0 C 21,8 C
10.05.2008 16:26 24,2 C 33,1 C 22,8 C 31 % 1018 hPa 0,0 l/m 5,1 m/s (3 Bft) O-SO45 115 5 min 58,1 klux 6,0 C 21,8 C
10.05.2008 16:31 24,1 C 33,0 C 22,8 C 34 % 1018 hPa 0,0 l/m 7,4 m/s (4 Bft) O-SO45 120 5 min 56,5 klux 7,2 C 20,8 C
10.05.2008 16:36 24,1 C 32,9 C 22,8 C 31 % 1018 hPa 0,0 l/m 7,4 m/s (4 Bft) O-SO45 120 5 min 56,1 klux 5,9 C 20,8 C
10.05.2008 16:41 24,2 C 33,2 C 22,9 C 34 % 1018 hPa 0,0 l/m 7,4 m/s (4 Bft) O-SO45 120 5 min 56,3 klux 7,3 C 20,9 C
10.05.2008 16:46 24,1 C 33,5 C 22,8 C 32 % 1018 hPa 0,0 l/m 7,4 m/s (4 Bft) O-SO45 120 5 min 55,0 klux 6,4 C 20,8 C
10.05.2008 16:51 24,2 C 33,4 C 22,9 C 33 % 1018 hPa 0,0 l/m 7,4 m/s (4 Bft) O-SO45 120 5 min 52,0 klux 6,9 C 20,9 C
10.05.2008 16:56 24,2 C 33,3 C 22,8 C 31 % 1018 hPa 0,0 l/m 7,4 m/s (4 Bft) O-SO45 120 5 min 52,4 klux 6,0 C 20,9 C
10.05.2008 17:01 24,3 C 33,3 C 23,2 C 30 % 1018 hPa 0,0 l/m 7,4 m/s (4 Bft) O-SO45 120 5 min 52,0 klux 5,6 C 21,1 C
10.05.2008 17:06 24,0 C 33,3 C 24,7 C 30 % 1018 hPa 0,0 l/m 7,4 m/s (4 Bft) O-SO45 120 5 min 49,6 klux 5,3 C 20,7 C
10.05.2008 17:11 24,0 C 33,2 C 24,8 C 31 % 1018 hPa 0,0 l/m 7,4 m/s (4 Bft) O-SO45 120 5 min 49,6 klux 5,8 C 20,7 C
10.05.2008 17:16 24,0 C 33,3 C 25,7 C 33 % 1018 hPa 0,0 l/m 4,2 m/s (3 Bft) O-NO67.5 70 5 min 49,1 klux 6,7 C 22,1 C
10.05.2008 17:21 24,2 C 33,4 C 25,8 C 32 % 1018 hPa 0,0 l/m 6,4 m/s (4 Bft) O22.5 100 5 min 48,6 klux 6,5 C 21,3 C
10.05.2008 17:26 23,9 C 33,1 C 25,4 C 30 % 1018 hPa 0,0 l/m 7,4 m/s (4 Bft) O-SO22.5 105 5 min 48,0 klux 5,3 C 20,5 C
10.05.2008 17:31 23,9 C 32,9 C 25,5 C 31 % 1018 hPa 0,0 l/m 5,9 m/s (4 Bft) O45 100 5 min 46,8 klux 5,7 C 21,1 C
10.05.2008 17:36 24,0 C 33,1 C 25,9 C 32 % 1018 hPa 0,0 l/m 5,4 m/s (3 Bft) O-SO45 110 5 min 45,7 klux 6,3 C 21,4 C
10.05.2008 17:41 24,0 C 33,1 C 25,6 C 29 % 1018 hPa 0,0 l/m 5,3 m/s (3 Bft) O-SO45 120 5 min 44,5 klux 4,9 C 21,5 C
10.05.2008 17:46 23,8 C 32,8 C 25,9 C 30 % 1018 hPa 0,0 l/m 6,9 m/s (4 Bft) O45 100 5 min 43,5 klux 5,2 C 20,5 C
10.05.2008 17:51 24,0 C 32,5 C 26,5 C 31 % 1018 hPa 0,0 l/m 5,5 m/s (3 Bft) O22.5 90 5 min 43,6 klux 5,8 C 21,4 C
10.05.2008 17:56 23,8 C 32,3 C 26,0 C 30 % 1018 hPa 0,0 l/m 7,2 m/s (4 Bft) O22.5 95 5 min 41,4 klux 5,2 C 20,5 C
10.05.2008 18:01 23,6 C 32,0 C 25,4 C 30 % 1018 hPa 0,0 l/m 7,2 m/s (4 Bft) O-SO22.5 110 5 min 40,0 klux 5,0 C 20,2 C
10.05.2008 18:06 23,5 C 32,0 C 25,6 C 30 % 1018 hPa 0,0 l/m 6,4 m/s (4 Bft) O45 95 5 min 39,2 klux 4,9 C 20,3 C
10.05.2008 18:11 23,6 C 31,9 C 25,9 C 32 % 1018 hPa 0,0 l/m 4,8 m/s (3 Bft) O-SO45 105 5 min 38,4 klux 5,9 C 21,2 C
10.05.2008 18:16 23,4 C 31,8 C 26,2 C 31 % 1018 hPa 0,0 l/m 4,7 m/s (3 Bft) O-SO45 105 5 min 37,8 klux 5,3 C 21,1 C
10.05.2008 18:21 23,5 C 31,5 C 25,9 C 31 % 1018 hPa 0,0 l/m 6,3 m/s (4 Bft) O-SO45 115 5 min 37,4 klux 5,4 C 20,4 C
10.05.2008 18:26 23,4 C 31,4 C 25,4 C 33 % 1018 hPa 0,0 l/m 6,8 m/s (4 Bft) O-SO45 105 5 min 35,9 klux 6,2 C 20,0 C
10.05.2008 18:31 23,0 C 30,9 C 25,3 C 33 % 1018 hPa 0,0 l/m 8,2 m/s (5 Bft) O-SO22.5 105 5 min 34,4 klux 5,9 C 19,0 C
10.05.2008 18:36 23,2 C 30,4 C 24,2 C 33 % 1018 hPa 0,0 l/m 6,9 m/s (4 Bft) O67.5 95 5 min 32,0 klux 6,0 C 19,7 C
10.05.2008 18:41 23,8 C 29,8 C 25,2 C 31 % 1018 hPa 0,0 l/m 7,3 m/s (4 Bft) O45 85 5 min 31,8 klux 5,6 C 20,4 C
10.05.2008 18:46 24,2 C 29,5 C 24,4 C 29 % 1018 hPa 0,0 l/m 8,4 m/s (5 Bft) O45 90 5 min 30,6 klux 5,0 C 20,6 C
10.05.2008 18:51 24,3 C 29,3 C 23,0 C 29 % 1018 hPa 0,0 l/m 6,8 m/s (4 Bft) O22.5 95 5 min 29,5 klux 5,1 C 21,3 C
10.05.2008 18:56 25,0 C 29,1 C 22,8 C 28 % 1018 hPa 0,0 l/m 6,9 m/s (4 Bft) O45 90 5 min 28,2 klux 5,2 C 22,2 C
10.05.2008 19:01 25,8 C 29,1 C 22,6 C 29 % 1018 hPa 0,0 l/m 6,9 m/s (4 Bft) O45 90 5 min 27,5 klux 6,4 C 23,3 C
10.05.2008 19:06 25,7 C 29,1 C 22,2 C 28 % 1018 hPa 0,0 l/m 7,7 m/s (4 Bft) O22.5 90 5 min 26,3 klux 5,8 C 22,9 C
10.05.2008 19:11 25,0 C 28,6 C 22,0 C 29 % 1018 hPa 0,0 l/m 6,1 m/s (4 Bft) O45 95 5 min 25,0 klux 5,7 C 22,5 C
10.05.2008 19:16 24,6 C 28,4 C 21,8 C 29 % 1018 hPa 0,0 l/m 7,6 m/s (4 Bft) O67.5 90 5 min 23,9 klux 5,4 C 21,4 C
10.05.2008 19:21 24,5 C 28,1 C 21,7 C 30 % 1018 hPa 0,0 l/m 5,9 m/s (4 Bft) O45 90 5 min 22,7 klux 5,8 C 21,9 C
10.05.2008 19:26 24,7 C 28,1 C 21,5 C 30 % 1018 hPa 0,0 l/m 5,0 m/s (3 Bft) O67.5 90 5 min 21,1 klux 6,0 C 22,5 C
10.05.2008 19:31 24,1 C 27,6 C 21,5 C 31 % 1018 hPa 0,0 l/m 6,9 m/s (4 Bft) O67.5 90 5 min 19,9 klux 5,9 C 21,0 C
10.05.2008 19:36 23,9 C 27,1 C 21,2 C 31 % 1018 hPa 0,0 l/m 7,7 m/s (4 Bft) O45 95 5 min 18,6 klux 5,7 C 20,4 C
10.05.2008 19:41 23,7 C 26,8 C 21,1 C 31 % 1018 hPa 0,0 l/m 6,3 m/s (4 Bft) O22.5 90 5 min 17,3 klux 5,6 C 20,7 C
10.05.2008 19:46 23,8 C 26,7 C 20,7 C 32 % 1018 hPa 0,0 l/m 4,6 m/s (3 Bft) O45 90 5 min 16,2 klux 6,1 C 21,6 C
10.05.2008 19:51 23,6 C 26,3 C 20,6 C 31 % 1018 hPa 0,0 l/m 5,5 m/s (4 Bft) O22.5 90 5 min 15,5 klux 5,5 C 20,9 C
10.05.2008 19:56 23,6 C 26,0 C 20,4 C 31 % 1018 hPa 0,0 l/m 5,2 m/s (3 Bft) O22.5 100 5 min 14,3 klux 5,5 C 21,0 C
10.05.2008 20:01 23,0 C 25,6 C 20,2 C 32 % 1018 hPa 0,0 l/m 7,1 m/s (4 Bft) O22.5 95 5 min 12,6 klux 5,4 C 19,4 C
10.05.2008 20:06 22,0 C 25,0 C 20,1 C 34 % 1018 hPa 0,0 l/m 4,9 m/s (3 Bft) O45 85 5 min 12,0 klux 5,4 C 19,2 C
10.05.2008 20:11 21,1 C 24,2 C 19,8 C 35 % 1018 hPa 0,0 l/m 5,3 m/s (3 Bft) O45 85 5 min 10,7 klux 5,0 C 17,8 C
10.05.2008 20:16 20,8 C 23,8 C 19,6 C 36 % 1018 hPa 0,0 l/m 4,7 m/s (3 Bft) O67.5 85 5 min 9,5 klux 5,2 C 17,8 C
10.05.2008 20:21 20,3 C 23,0 C 19,3 C 37 % 1018 hPa 0,0 l/m 2,9 m/s (2 Bft) O-NO45 75 5 min 6,87 klux 5,1 C 18,8 C
10.05.2008 20:26 20,0 C 22,5 C 19,3 C 37 % 1018 hPa 0,0 l/m 4,9 m/s (3 Bft) O-NO45 75 0 min 3,01 klux 4,9 C 16,7 C
10.05.2008 20:31 19,8 C 22,1 C 19,1 C 37 % 1018 hPa 0,0 l/m 3,1 m/s (2 Bft) O45 80 0 min 2,74 klux 4,7 C 18,1 C
10.05.2008 20:36 19,5 C 21,7 C 18,8 C 38 % 1018 hPa 0,0 l/m 2,6 m/s (2 Bft) O-NO22.5 60 0 min 2,31 klux 4,8 C 18,4 C
10.05.2008 20:41 19,2 C 21,2 C 18,8 C 38 % 1018 hPa 0,0 l/m 2,9 m/s (2 Bft) O45 85 0 min 1,90 klux 4,5 C 17,6 C
10.05.2008 20:46 19,1 C 21,0 C 18,5 C 39 % 1018 hPa 0,0 l/m 2,9 m/s (2 Bft) O45 85 0 min 1,70 klux 4,8 C 17,5 C
10.05.2008 20:51 19,0 C 20,8 C 18,3 C 39 % 1019 hPa 0,0 l/m 4,7 m/s (3 Bft) O-NO45 70 0 min 1,28 klux 4,7 C 15,6 C
10.05.2008 20:56 18,8 C 20,4 C 18,4 C 39 % 1019 hPa 0,0 l/m 4,4 m/s (3 Bft) O45 95 0 min 926 lux 4,6 C 15,6 C
10.05.2008 21:01 18,7 C 20,0 C 17,9 C 40 % 1019 hPa 0,0 l/m 3,9 m/s (3 Bft) O-NO45 65 0 min 631 lux 4,8 C 15,9 C
10.05.2008 21:06 18,4 C 19,9 C 17,9 C 41 % 1019 hPa 0,0 l/m 3,4 m/s (2 Bft) O22.5 85 0 min 401 lux 4,9 C 16,2 C
10.05.2008 21:11 18,2 C 19,6 C 17,7 C 41 % 1019 hPa 0,0 l/m 4,7 m/s (3 Bft) O67.5 80 0 min 233 lux 4,7 C 14,6 C
10.05.2008 21:16 18,0 C 19,3 C 17,7 C 43 % 1019 hPa 0,0 l/m 4,1 m/s (3 Bft) O45 95 0 min 123 lux 5,2 C 14,9 C
10.05.2008 21:21 18,0 C 19,2 C 17,5 C 43 % 1019 hPa 0,0 l/m 4,1 m/s (3 Bft) O45 80 0 min 66 lux 5,2 C 14,9 C
10.05.2008 21:26 17,9 C 19,1 C 17,3 C 43 % 1019 hPa 0,0 l/m 3,3 m/s (2 Bft) O-NO22.5 70 0 min 35 lux 5,1 C 15,7 C
10.05.2008 21:31 17,6 C 18,7 C 17,0 C 44 % 1019 hPa 0,0 l/m 2,6 m/s (2 Bft) O45 80 0 min 22 lux 5,2 C 16,3 C
10.05.2008 21:36 17,5 C 18,6 C 17,0 C 44 % 1019 hPa 0,0 l/m 3,1 m/s (2 Bft) O45 90 0 min 17 lux 5,1 C 15,5 C
10.05.2008 21:41 17,3 C 18,3 C 17,0 C 44 % 1019 hPa 0,0 l/m 3,1 m/s (2 Bft) O-NO67.5 75 0 min 13 lux 4,9 C 15,2 C
10.05.2008 21:46 17,2 C 18,1 C 16,8 C 44 % 1019 hPa 0,0 l/m 4,0 m/s (3 Bft) O45 100 0 min 9 lux 4,8 C 14,1 C
10.05.2008 21:51 17,1 C 17,9 C 16,5 C 45 % 1019 hPa 0,0 l/m 1,5 m/s (1 Bft) NO67.5 40 0 min 6 lux 5,1 C 17,1 C
10.05.2008 21:56 16,8 C 17,8 C 16,4 C 46 % 1019 hPa 0,0 l/m 2,3 m/s (2 Bft) O22.5 80 0 min 5 lux 5,1 C 15,8 C
10.05.2008 22:01 16,5 C 17,6 C 16,1 C 46 % 1019 hPa 0,0 l/m 2,5 m/s (2 Bft) O22.5 85 0 min 5 lux 4,8 C 15,3 C
10.05.2008 22:06 16,4 C 17,3 C 15,9 C 47 % 1019 hPa 0,0 l/m 0,8 m/s (1 Bft) O 80 0 min 2 lux 5,1 C 16,4 C
10.05.2008 22:11 16,1 C 17,2 C 15,9 C 48 % 1019 hPa 0,0 l/m 1,6 m/s (1 Bft) O-NO45 75 0 min 2 lux 5,1 C 16,1 C
10.05.2008 22:16 15,9 C 17,0 C 15,8 C 49 % 1019 hPa 0,0 l/m 1,4 m/s (1 Bft) O 85 0 min 2 lux 5,2 C 15,9 C
10.05.2008 22:21 15,7 C 16,8 C 15,6 C 49 % 1019 hPa 0,0 l/m 1,7 m/s (2 Bft) O22.5 85 0 min 2 lux 5,0 C 15,7 C
10.05.2008 22:26 15,6 C 16,6 C 15,4 C 50 % 1019 hPa 0,0 l/m 1,6 m/s (1 Bft) O-NO 65 0 min 1 lux 5,2 C 15,6 C
10.05.2008 22:31 15,6 C 16,6 C 15,5 C 50 % 1019 hPa 0,0 l/m 1,1 m/s (1 Bft) O-NO 70 0 min 1 lux 5,2 C 15,6 C
10.05.2008 22:36 15,4 C 16,3 C 15,2 C 50 % 1019 hPa 0,0 l/m 1,2 m/s (1 Bft) O-NO22.5 60 0 min 1 lux 5,0 C 15,4 C
10.05.2008 22:41 15,3 C 16,2 C 15,0 C 50 % 1019 hPa 0,0 l/m 0,1 m/s (0 Bft) NO 45 0 min 1 lux 4,9 C 15,3 C
10.05.2008 22:46 15,0 C 16,0 C 14,8 C 52 % 1019 hPa 0,0 l/m 1,1 m/s (1 Bft) O-NO22.5 60 0 min 0 lux 5,2 C 15,0 C
10.05.2008 22:51 15,0 C 15,9 C 14,8 C 52 % 1019 hPa 0,0 l/m 0,0 m/s (0 Bft) O-NO 60 0 min 0 lux 5,2 C 15,0 C
10.05.2008 22:56 14,9 C 15,7 C 14,8 C 52 % 1019 hPa 0,0 l/m 0,0 m/s (0 Bft) O-NO 60 0 min 0 lux 5,1 C 14,9 C
10.05.2008 23:01 14,8 C 15,5 C 14,6 C 53 % 1019 hPa 0,0 l/m 1,6 m/s (1 Bft) O-NO22.5 65 0 min 0 lux 5,3 C 14,8 C
10.05.2008 23:06 14,6 C 15,4 C 14,2 C 53 % 1019 hPa 0,0 l/m 0,9 m/s (1 Bft) O 80 0 min 0 lux 5,1 C 14,6 C
10.05.2008 23:11 14,4 C 15,3 C 14,4 C 55 % 1019 hPa 0,0 l/m 0,0 m/s (0 Bft) O 80 0 min 0 lux 5,5 C 14,4 C
10.05.2008 23:16 14,4 C 15,1 C 14,4 C 55 % 1019 hPa 0,0 l/m 2,3 m/s (2 Bft) O67.5 80 0 min 0 lux 5,5 C 13,3 C
10.05.2008 23:21 14,3 C 15,1 C 14,2 C 55 % 1019 hPa 0,0 l/m 1,4 m/s (1 Bft) O-SO22.5 105 0 min 0 lux 5,4 C 14,3 C
10.05.2008 23:26 14,0 C 14,9 C 14,1 C 56 % 1019 hPa 0,0 l/m 0,4 m/s (1 Bft) O-SO 110 0 min 0 lux 5,4 C 14,0 C
10.05.2008 23:31 14,0 C 14,7 C 14,1 C 56 % 1019 hPa 0,0 l/m 1,4 m/s (1 Bft) O-SO 105 0 min 0 lux 5,4 C 14,0 C
10.05.2008 23:36 14,3 C 14,7 C 14,0 C 56 % 1020 hPa 0,0 l/m 1,4 m/s (1 Bft) O 90 0 min 0 lux 5,6 C 14,3 C
10.05.2008 23:41 14,3 C 14,6 C 13,8 C 55 % 1020 hPa 0,0 l/m 1,5 m/s (1 Bft) O22.5 80 0 min 0 lux 5,4 C 14,3 C
10.05.2008 23:46 14,2 C 14,4 C 13,9 C 56 % 1020 hPa 0,0 l/m 1,8 m/s (2 Bft) O-NO 70 0 min 0 lux 5,6 C 14,2 C
10.05.2008 23:51 14,3 C 14,3 C 13,8 C 56 % 1020 hPa 0,0 l/m 1,8 m/s (2 Bft) O-NO 70 0 min 0 lux 5,6 C 14,3 C
10.05.2008 23:56 14,3 C 14,3 C 13,5 C 56 % 1020 hPa 0,0 l/m 2,0 m/s (2 Bft) O-NO22.5 65 0 min 0 lux 5,6 C 13,9 C
_ Min-Zeit 06:06 06:01 05:51 18:56 00:01 - 00:36 - - - - 04:56 06:06
Minimum _ 7,0 C 7,9 C 7,8 C 28 % 1018 hPa - 0,0 m/s (0 Bft) - - - - 3,6 C 7,0 C
_ Max-Zeit 19:01 16:46 13:41 06:11 23:36 00:01 12:16 - - 08:21 13:21 08:06 19:01
Maximum _ 25,8 C 33,5 C 28,4 C 81 % 1020 hPa 0,0 l/m 9,8 m/s
O-NO (5 Bft)
- - 6 min 73,2 klux 8,9 C 23,3 C
Durchschnitt _ 17,4 C 19,8 C 18,1 C 49 % 1019 hPa #0,0 l/m 3,0 m/s (2 Bft) O-SO - #13:40 h 28,3 klux 5,8 C 15,9 C